sensor_id;sensor_type;location;lat;lon;timestamp;P1;durP1;ratioP1;P2;durP2;ratioP2
2998;SDS011;1509;51.964;7.628;2022-12-10T00:00:52;26.00;;;14.43;;
2998;SDS011;1509;51.964;7.628;2022-12-10T00:03:17;22.47;;;14.23;;
2998;SDS011;1509;51.964;7.628;2022-12-10T00:05:43;29.63;;;15.73;;
2998;SDS011;1509;51.964;7.628;2022-12-10T00:08:09;24.83;;;14.70;;
2998;SDS011;1509;51.964;7.628;2022-12-10T00:10:38;30.83;;;15.33;;
2998;SDS011;1509;51.964;7.628;2022-12-10T00:13:04;23.87;;;14.23;;
2998;SDS011;1509;51.964;7.628;2022-12-10T00:15:30;21.50;;;12.90;;
2998;SDS011;1509;51.964;7.628;2022-12-10T00:17:58;27.00;;;15.30;;
2998;SDS011;1509;51.964;7.628;2022-12-10T00:20:24;25.23;;;15.27;;
2998;SDS011;1509;51.964;7.628;2022-12-10T00:22:49;24.07;;;14.67;;
2998;SDS011;1509;51.964;7.628;2022-12-10T00:25:16;22.80;;;11.53;;
2998;SDS011;1509;51.964;7.628;2022-12-10T00:27:44;17.13;;;10.60;;
2998;SDS011;1509;51.964;7.628;2022-12-10T00:30:10;17.70;;;9.80;;
2998;SDS011;1509;51.964;7.628;2022-12-10T00:32:36;18.73;;;11.30;;
2998;SDS011;1509;51.964;7.628;2022-12-10T00:35:02;22.63;;;11.60;;
2998;SDS011;1509;51.964;7.628;2022-12-10T00:37:27;16.63;;;10.30;;
2998;SDS011;1509;51.964;7.628;2022-12-10T00:39:53;15.83;;;8.40;;
2998;SDS011;1509;51.964;7.628;2022-12-10T00:42:18;15.97;;;10.37;;
2998;SDS011;1509;51.964;7.628;2022-12-10T00:44:44;22.93;;;9.60;;
2998;SDS011;1509;51.964;7.628;2022-12-10T00:47:10;15.63;;;8.83;;
2998;SDS011;1509;51.964;7.628;2022-12-10T00:49:35;16.87;;;9.40;;
2998;SDS011;1509;51.964;7.628;2022-12-10T00:52:01;15.97;;;9.10;;
2998;SDS011;1509;51.964;7.628;2022-12-10T00:54:26;18.97;;;11.60;;
2998;SDS011;1509;51.964;7.628;2022-12-10T00:56:52;19.97;;;10.87;;
2998;SDS011;1509;51.964;7.628;2022-12-10T00:59:18;20.07;;;12.00;;
2998;SDS011;1509;51.964;7.628;2022-12-10T01:01:44;22.73;;;10.10;;
2998;SDS011;1509;51.964;7.628;2022-12-10T01:04:13;19.40;;;11.37;;
2998;SDS011;1509;51.964;7.628;2022-12-10T01:09:09;16.60;;;9.30;;
2998;SDS011;1509;51.964;7.628;2022-12-10T01:11:39;16.80;;;10.07;;
2998;SDS011;1509;51.964;7.628;2022-12-10T01:14:10;18.60;;;11.43;;
2998;SDS011;1509;51.964;7.628;2022-12-10T01:16:37;25.93;;;13.70;;
2998;SDS011;1509;51.964;7.628;2022-12-10T01:19:03;22.13;;;12.80;;
2998;SDS011;1509;51.964;7.628;2022-12-10T01:21:30;23.63;;;13.20;;
2998;SDS011;1509;51.964;7.628;2022-12-10T01:23:56;24.50;;;11.70;;
2998;SDS011;1509;51.964;7.628;2022-12-10T01:26:27;20.30;;;12.00;;
2998;SDS011;1509;51.964;7.628;2022-12-10T01:28:55;19.50;;;10.87;;
2998;SDS011;1509;51.964;7.628;2022-12-10T01:31:23;18.13;;;10.00;;
2998;SDS011;1509;51.964;7.628;2022-12-10T01:33:54;16.60;;;10.80;;
2998;SDS011;1509;51.964;7.628;2022-12-10T01:36:28;18.60;;;11.23;;
2998;SDS011;1509;51.964;7.628;2022-12-10T01:38:55;20.03;;;12.60;;
2998;SDS011;1509;51.964;7.628;2022-12-10T01:41:28;19.00;;;11.00;;
2998;SDS011;1509;51.964;7.628;2022-12-10T01:44:01;20.23;;;11.10;;
2998;SDS011;1509;51.964;7.628;2022-12-10T01:46:51;14.77;;;9.93;;
2998;SDS011;1509;51.964;7.628;2022-12-10T01:49:42;20.63;;;11.40;;
2998;SDS011;1509;51.964;7.628;2022-12-10T01:52:07;16.20;;;10.57;;
2998;SDS011;1509;51.964;7.628;2022-12-10T01:54:36;21.90;;;11.10;;
2998;SDS011;1509;51.964;7.628;2022-12-10T01:57:17;13.57;;;9.73;;
2998;SDS011;1509;51.964;7.628;2022-12-10T01:59:46;16.13;;;10.47;;
2998;SDS011;1509;51.964;7.628;2022-12-10T02:14:02;18.70;;;11.17;;
2998;SDS011;1509;51.964;7.628;2022-12-10T02:16:53;15.87;;;9.87;;
2998;SDS011;1509;51.964;7.628;2022-12-10T02:19:35;22.27;;;11.43;;
2998;SDS011;1509;51.964;7.628;2022-12-10T02:22:26;22.50;;;11.10;;
2998;SDS011;1509;51.964;7.628;2022-12-10T02:24:56;17.60;;;10.83;;
2998;SDS011;1509;51.964;7.628;2022-12-10T02:27:26;19.50;;;12.53;;
2998;SDS011;1509;51.964;7.628;2022-12-10T02:29:58;21.97;;;12.10;;
2998;SDS011;1509;51.964;7.628;2022-12-10T02:32:26;27.00;;;11.87;;
2998;SDS011;1509;51.964;7.628;2022-12-10T02:34:58;20.43;;;10.90;;
2998;SDS011;1509;51.964;7.628;2022-12-10T02:37:32;22.00;;;11.00;;
2998;SDS011;1509;51.964;7.628;2022-12-10T02:40:04;18.10;;;12.00;;
2998;SDS011;1509;51.964;7.628;2022-12-10T02:42:34;23.23;;;11.97;;
2998;SDS011;1509;51.964;7.628;2022-12-10T02:45:04;17.30;;;11.07;;
2998;SDS011;1509;51.964;7.628;2022-12-10T02:47:32;17.83;;;10.23;;
2998;SDS011;1509;51.964;7.628;2022-12-10T02:49:58;18.67;;;11.43;;
2998;SDS011;1509;51.964;7.628;2022-12-10T02:52:24;18.70;;;11.40;;
2998;SDS011;1509;51.964;7.628;2022-12-10T02:54:50;20.23;;;11.20;;
2998;SDS011;1509;51.964;7.628;2022-12-10T03:08:51;20.77;;;10.27;;
2998;SDS011;1509;51.964;7.628;2022-12-10T03:11:25;19.43;;;11.97;;
2998;SDS011;1509;51.964;7.628;2022-12-10T03:16:45;18.70;;;12.53;;
2998;SDS011;1509;51.964;7.628;2022-12-10T03:19:32;16.10;;;10.30;;
2998;SDS011;1509;51.964;7.628;2022-12-10T03:22:05;18.07;;;11.37;;
2998;SDS011;1509;51.964;7.628;2022-12-10T03:24:34;18.80;;;11.07;;
2998;SDS011;1509;51.964;7.628;2022-12-10T03:27:00;17.07;;;11.63;;
2998;SDS011;1509;51.964;7.628;2022-12-10T03:29:30;21.43;;;11.63;;
2998;SDS011;1509;51.964;7.628;2022-12-10T03:31:59;19.20;;;11.57;;
2998;SDS011;1509;51.964;7.628;2022-12-10T03:34:26;20.03;;;11.43;;
2998;SDS011;1509;51.964;7.628;2022-12-10T03:36:53;23.20;;;12.57;;
2998;SDS011;1509;51.964;7.628;2022-12-10T03:39:19;20.97;;;11.93;;
2998;SDS011;1509;51.964;7.628;2022-12-10T03:41:44;20.97;;;13.03;;
2998;SDS011;1509;51.964;7.628;2022-12-10T03:44:10;18.87;;;12.73;;
2998;SDS011;1509;51.964;7.628;2022-12-10T03:46:36;20.07;;;13.90;;
2998;SDS011;1509;51.964;7.628;2022-12-10T03:49:03;22.83;;;13.40;;
2998;SDS011;1509;51.964;7.628;2022-12-10T03:51:29;24.20;;;12.03;;
2998;SDS011;1509;51.964;7.628;2022-12-10T03:53:54;22.07;;;12.50;;
2998;SDS011;1509;51.964;7.628;2022-12-10T03:56:20;23.30;;;11.37;;
2998;SDS011;1509;51.964;7.628;2022-12-10T03:58:47;22.40;;;12.57;;
2998;SDS011;1509;51.964;7.628;2022-12-10T04:01:13;27.00;;;13.13;;
2998;SDS011;1509;51.964;7.628;2022-12-10T04:03:40;21.73;;;13.17;;
2998;SDS011;1509;51.964;7.628;2022-12-10T04:06:08;28.17;;;13.27;;
2998;SDS011;1509;51.964;7.628;2022-12-10T04:08:35;21.87;;;13.70;;
2998;SDS011;1509;51.964;7.628;2022-12-10T04:11:02;19.13;;;13.40;;
2998;SDS011;1509;51.964;7.628;2022-12-10T04:13:30;19.67;;;14.30;;
2998;SDS011;1509;51.964;7.628;2022-12-10T04:16:15;25.80;;;14.73;;
2998;SDS011;1509;51.964;7.628;2022-12-10T04:18:54;20.37;;;13.77;;
2998;SDS011;1509;51.964;7.628;2022-12-10T04:21:31;23.27;;;15.37;;
2998;SDS011;1509;51.964;7.628;2022-12-10T04:24:18;25.27;;;14.17;;
2998;SDS011;1509;51.964;7.628;2022-12-10T04:27:08;23.73;;;15.00;;
2998;SDS011;1509;51.964;7.628;2022-12-10T04:29:54;22.70;;;15.23;;
2998;SDS011;1509;51.964;7.628;2022-12-10T04:32:21;26.23;;;15.37;;
2998;SDS011;1509;51.964;7.628;2022-12-10T04:34:48;29.30;;;16.17;;
2998;SDS011;1509;51.964;7.628;2022-12-10T04:37:15;27.43;;;16.37;;
2998;SDS011;1509;51.964;7.628;2022-12-10T04:39:41;29.67;;;18.60;;
2998;SDS011;1509;51.964;7.628;2022-12-10T04:42:07;25.57;;;16.43;;
2998;SDS011;1509;51.964;7.628;2022-12-10T04:44:33;29.27;;;17.40;;
2998;SDS011;1509;51.964;7.628;2022-12-10T04:46:59;27.00;;;15.27;;
2998;SDS011;1509;51.964;7.628;2022-12-10T04:49:25;27.87;;;16.97;;
2998;SDS011;1509;51.964;7.628;2022-12-10T04:51:50;30.37;;;17.03;;
2998;SDS011;1509;51.964;7.628;2022-12-10T04:54:17;24.30;;;16.80;;
2998;SDS011;1509;51.964;7.628;2022-12-10T04:56:43;30.33;;;18.10;;
2998;SDS011;1509;51.964;7.628;2022-12-10T04:59:09;28.30;;;18.20;;
2998;SDS011;1509;51.964;7.628;2022-12-10T05:01:35;29.77;;;17.20;;
2998;SDS011;1509;51.964;7.628;2022-12-10T05:04:02;30.73;;;18.63;;
2998;SDS011;1509;51.964;7.628;2022-12-10T05:06:30;28.17;;;16.60;;
2998;SDS011;1509;51.964;7.628;2022-12-10T05:08:55;34.60;;;17.10;;
2998;SDS011;1509;51.964;7.628;2022-12-10T05:11:22;31.63;;;17.23;;
2998;SDS011;1509;51.964;7.628;2022-12-10T05:13:53;28.33;;;15.60;;
2998;SDS011;1509;51.964;7.628;2022-12-10T05:16:20;25.57;;;17.17;;
2998;SDS011;1509;51.964;7.628;2022-12-10T05:18:46;27.40;;;16.30;;
2998;SDS011;1509;51.964;7.628;2022-12-10T05:21:13;32.63;;;18.20;;
2998;SDS011;1509;51.964;7.628;2022-12-10T05:23:41;29.10;;;17.60;;
2998;SDS011;1509;51.964;7.628;2022-12-10T05:26:10;27.87;;;17.17;;
2998;SDS011;1509;51.964;7.628;2022-12-10T05:28:43;28.50;;;16.50;;
2998;SDS011;1509;51.964;7.628;2022-12-10T05:31:12;31.57;;;18.37;;
2998;SDS011;1509;51.964;7.628;2022-12-10T05:33:39;32.20;;;17.63;;
2998;SDS011;1509;51.964;7.628;2022-12-10T05:36:05;28.17;;;17.00;;
2998;SDS011;1509;51.964;7.628;2022-12-10T05:38:31;26.90;;;16.83;;
2998;SDS011;1509;51.964;7.628;2022-12-10T05:41:04;27.77;;;16.77;;
2998;SDS011;1509;51.964;7.628;2022-12-10T05:43:36;32.20;;;18.43;;
2998;SDS011;1509;51.964;7.628;2022-12-10T05:46:02;24.20;;;15.53;;
2998;SDS011;1509;51.964;7.628;2022-12-10T05:48:31;33.93;;;16.57;;
2998;SDS011;1509;51.964;7.628;2022-12-10T05:50:58;26.93;;;16.57;;
2998;SDS011;1509;51.964;7.628;2022-12-10T05:53:29;26.53;;;17.40;;
2998;SDS011;1509;51.964;7.628;2022-12-10T05:56:01;30.53;;;17.20;;
2998;SDS011;1509;51.964;7.628;2022-12-10T05:58:28;32.63;;;19.07;;
2998;SDS011;1509;51.964;7.628;2022-12-10T06:00:55;31.83;;;18.57;;
2998;SDS011;1509;51.964;7.628;2022-12-10T06:03:21;29.63;;;18.50;;
2998;SDS011;1509;51.964;7.628;2022-12-10T06:05:47;29.90;;;16.30;;
2998;SDS011;1509;51.964;7.628;2022-12-10T06:08:12;37.40;;;18.80;;
2998;SDS011;1509;51.964;7.628;2022-12-10T06:10:38;32.20;;;17.87;;
2998;SDS011;1509;51.964;7.628;2022-12-10T06:13:04;27.07;;;18.20;;
2998;SDS011;1509;51.964;7.628;2022-12-10T06:15:29;29.33;;;18.10;;
2998;SDS011;1509;51.964;7.628;2022-12-10T06:17:55;31.40;;;17.50;;
2998;SDS011;1509;51.964;7.628;2022-12-10T06:20:22;35.13;;;19.87;;
2998;SDS011;1509;51.964;7.628;2022-12-10T06:22:48;30.53;;;18.80;;
2998;SDS011;1509;51.964;7.628;2022-12-10T06:25:17;31.00;;;19.63;;
2998;SDS011;1509;51.964;7.628;2022-12-10T06:27:43;34.87;;;18.70;;
2998;SDS011;1509;51.964;7.628;2022-12-10T06:30:09;34.93;;;19.03;;
2998;SDS011;1509;51.964;7.628;2022-12-10T06:32:35;30.83;;;19.83;;
2998;SDS011;1509;51.964;7.628;2022-12-10T06:35:01;39.10;;;22.80;;
2998;SDS011;1509;51.964;7.628;2022-12-10T06:37:27;33.37;;;20.47;;
2998;SDS011;1509;51.964;7.628;2022-12-10T06:39:53;38.00;;;19.70;;
2998;SDS011;1509;51.964;7.628;2022-12-10T06:42:19;36.00;;;19.03;;
2998;SDS011;1509;51.964;7.628;2022-12-10T06:44:45;40.50;;;20.27;;
2998;SDS011;1509;51.964;7.628;2022-12-10T06:47:12;34.83;;;20.77;;
2998;SDS011;1509;51.964;7.628;2022-12-10T06:49:38;31.13;;;18.77;;
2998;SDS011;1509;51.964;7.628;2022-12-10T06:52:06;39.03;;;19.87;;
2998;SDS011;1509;51.964;7.628;2022-12-10T06:54:32;32.43;;;19.57;;
2998;SDS011;1509;51.964;7.628;2022-12-10T06:56:58;31.93;;;18.40;;
2998;SDS011;1509;51.964;7.628;2022-12-10T06:59:24;34.33;;;18.70;;
2998;SDS011;1509;51.964;7.628;2022-12-10T07:01:50;32.07;;;20.07;;
2998;SDS011;1509;51.964;7.628;2022-12-10T07:04:15;35.50;;;20.37;;
2998;SDS011;1509;51.964;7.628;2022-12-10T07:06:41;35.07;;;20.20;;
2998;SDS011;1509;51.964;7.628;2022-12-10T07:09:06;36.10;;;18.53;;
2998;SDS011;1509;51.964;7.628;2022-12-10T07:11:32;35.07;;;22.27;;
2998;SDS011;1509;51.964;7.628;2022-12-10T07:13:58;39.53;;;19.80;;
2998;SDS011;1509;51.964;7.628;2022-12-10T07:16:25;36.60;;;19.60;;
2998;SDS011;1509;51.964;7.628;2022-12-10T07:18:55;34.27;;;18.50;;
2998;SDS011;1509;51.964;7.628;2022-12-10T07:21:29;35.00;;;18.40;;
2998;SDS011;1509;51.964;7.628;2022-12-10T07:24:01;37.13;;;19.20;;
2998;SDS011;1509;51.964;7.628;2022-12-10T07:26:33;32.23;;;19.47;;
2998;SDS011;1509;51.964;7.628;2022-12-10T07:29:04;36.57;;;19.43;;
2998;SDS011;1509;51.964;7.628;2022-12-10T07:31:31;39.70;;;21.73;;
2998;SDS011;1509;51.964;7.628;2022-12-10T07:33:58;38.87;;;20.57;;
2998;SDS011;1509;51.964;7.628;2022-12-10T07:36:24;29.60;;;18.70;;
2998;SDS011;1509;51.964;7.628;2022-12-10T07:38:51;37.40;;;20.03;;
2998;SDS011;1509;51.964;7.628;2022-12-10T07:41:17;31.10;;;20.70;;
2998;SDS011;1509;51.964;7.628;2022-12-10T07:43:44;30.37;;;19.67;;
2998;SDS011;1509;51.964;7.628;2022-12-10T07:46:14;34.33;;;19.00;;
2998;SDS011;1509;51.964;7.628;2022-12-10T07:48:42;31.60;;;19.23;;
2998;SDS011;1509;51.964;7.628;2022-12-10T07:51:09;28.53;;;16.83;;
2998;SDS011;1509;51.964;7.628;2022-12-10T07:53:35;27.53;;;16.67;;
2998;SDS011;1509;51.964;7.628;2022-12-10T07:56:03;33.63;;;17.63;;
2998;SDS011;1509;51.964;7.628;2022-12-10T07:58:30;24.97;;;17.43;;
2998;SDS011;1509;51.964;7.628;2022-12-10T08:00:56;32.93;;;19.00;;
2998;SDS011;1509;51.964;7.628;2022-12-10T08:03:22;31.37;;;18.30;;
2998;SDS011;1509;51.964;7.628;2022-12-10T08:05:49;29.90;;;18.23;;
2998;SDS011;1509;51.964;7.628;2022-12-10T08:08:25;32.93;;;18.57;;
2998;SDS011;1509;51.964;7.628;2022-12-10T08:10:50;28.07;;;16.30;;
2998;SDS011;1509;51.964;7.628;2022-12-10T08:13:16;28.53;;;17.23;;
2998;SDS011;1509;51.964;7.628;2022-12-10T08:15:42;30.60;;;16.77;;
2998;SDS011;1509;51.964;7.628;2022-12-10T08:18:07;33.97;;;19.30;;
2998;SDS011;1509;51.964;7.628;2022-12-10T08:20:35;31.23;;;17.80;;
2998;SDS011;1509;51.964;7.628;2022-12-10T08:23:01;38.43;;;20.70;;
2998;SDS011;1509;51.964;7.628;2022-12-10T08:25:26;33.50;;;20.27;;
2998;SDS011;1509;51.964;7.628;2022-12-10T08:27:52;34.47;;;19.70;;
2998;SDS011;1509;51.964;7.628;2022-12-10T08:30:21;31.23;;;18.20;;
2998;SDS011;1509;51.964;7.628;2022-12-10T08:32:46;32.47;;;18.93;;
2998;SDS011;1509;51.964;7.628;2022-12-10T08:35:12;36.90;;;19.17;;
2998;SDS011;1509;51.964;7.628;2022-12-10T08:37:40;32.10;;;17.50;;
2998;SDS011;1509;51.964;7.628;2022-12-10T08:40:06;30.23;;;16.73;;
2998;SDS011;1509;51.964;7.628;2022-12-10T08:42:32;30.97;;;19.93;;
2998;SDS011;1509;51.964;7.628;2022-12-10T08:44:58;32.83;;;18.83;;
2998;SDS011;1509;51.964;7.628;2022-12-10T08:47:23;33.23;;;18.03;;
2998;SDS011;1509;51.964;7.628;2022-12-10T08:49:49;33.93;;;17.00;;
2998;SDS011;1509;51.964;7.628;2022-12-10T08:52:15;37.87;;;20.23;;
2998;SDS011;1509;51.964;7.628;2022-12-10T08:54:43;34.33;;;18.67;;
2998;SDS011;1509;51.964;7.628;2022-12-10T08:57:08;32.00;;;18.23;;
2998;SDS011;1509;51.964;7.628;2022-12-10T08:59:34;31.60;;;18.43;;
2998;SDS011;1509;51.964;7.628;2022-12-10T09:01:59;35.67;;;20.17;;
2998;SDS011;1509;51.964;7.628;2022-12-10T09:04:25;38.40;;;19.20;;
2998;SDS011;1509;51.964;7.628;2022-12-10T09:06:51;31.30;;;17.93;;
2998;SDS011;1509;51.964;7.628;2022-12-10T09:09:17;36.03;;;22.67;;
2998;SDS011;1509;51.964;7.628;2022-12-10T09:11:43;34.67;;;18.53;;
2998;SDS011;1509;51.964;7.628;2022-12-10T09:14:10;30.67;;;16.77;;
2998;SDS011;1509;51.964;7.628;2022-12-10T09:16:36;32.80;;;18.20;;
2998;SDS011;1509;51.964;7.628;2022-12-10T09:19:04;32.17;;;18.63;;
2998;SDS011;1509;51.964;7.628;2022-12-10T09:21:30;30.20;;;19.10;;
2998;SDS011;1509;51.964;7.628;2022-12-10T09:23:57;34.00;;;20.20;;
2998;SDS011;1509;51.964;7.628;2022-12-10T09:26:23;29.50;;;16.97;;
2998;SDS011;1509;51.964;7.628;2022-12-10T09:28:49;30.73;;;18.10;;
2998;SDS011;1509;51.964;7.628;2022-12-10T09:31:15;30.93;;;17.30;;
2998;SDS011;1509;51.964;7.628;2022-12-10T09:33:44;28.63;;;16.90;;
2998;SDS011;1509;51.964;7.628;2022-12-10T09:36:10;26.03;;;16.87;;
2998;SDS011;1509;51.964;7.628;2022-12-10T09:38:38;33.00;;;17.57;;
2998;SDS011;1509;51.964;7.628;2022-12-10T09:43:45;27.60;;;17.90;;
2998;SDS011;1509;51.964;7.628;2022-12-10T09:46:21;27.67;;;16.47;;
2998;SDS011;1509;51.964;7.628;2022-12-10T09:49:07;27.70;;;14.90;;
2998;SDS011;1509;51.964;7.628;2022-12-10T09:51:46;24.67;;;17.40;;
2998;SDS011;1509;51.964;7.628;2022-12-10T09:54:18;29.40;;;17.67;;
2998;SDS011;1509;51.964;7.628;2022-12-10T09:56:52;28.97;;;17.63;;
2998;SDS011;1509;51.964;7.628;2022-12-10T09:59:24;20.63;;;14.27;;
2998;SDS011;1509;51.964;7.628;2022-12-10T10:04:50;29.17;;;15.10;;
2998;SDS011;1509;51.964;7.628;2022-12-10T10:07:21;24.00;;;13.70;;
2998;SDS011;1509;51.964;7.628;2022-12-10T10:09:51;23.43;;;14.30;;
2998;SDS011;1509;51.964;7.628;2022-12-10T10:12:22;19.17;;;13.27;;
2998;SDS011;1509;51.964;7.628;2022-12-10T10:14:48;19.30;;;13.30;;
2998;SDS011;1509;51.964;7.628;2022-12-10T10:17:16;20.77;;;14.20;;
2998;SDS011;1509;51.964;7.628;2022-12-10T10:19:43;20.87;;;12.57;;
2998;SDS011;1509;51.964;7.628;2022-12-10T10:22:10;20.57;;;13.10;;
2998;SDS011;1509;51.964;7.628;2022-12-10T10:24:37;24.10;;;12.87;;
2998;SDS011;1509;51.964;7.628;2022-12-10T10:27:11;25.27;;;14.63;;
2998;SDS011;1509;51.964;7.628;2022-12-10T10:29:39;23.97;;;14.90;;
2998;SDS011;1509;51.964;7.628;2022-12-10T10:34:59;25.13;;;16.87;;
2998;SDS011;1509;51.964;7.628;2022-12-10T10:37:27;26.97;;;16.70;;
2998;SDS011;1509;51.964;7.628;2022-12-10T10:40:05;28.93;;;18.70;;
2998;SDS011;1509;51.964;7.628;2022-12-10T10:42:38;31.10;;;19.10;;
2998;SDS011;1509;51.964;7.628;2022-12-10T10:48:04;28.20;;;18.97;;
2998;SDS011;1509;51.964;7.628;2022-12-10T10:50:48;32.00;;;20.33;;
2998;SDS011;1509;51.964;7.628;2022-12-10T10:53:26;31.30;;;18.37;;
2998;SDS011;1509;51.964;7.628;2022-12-10T10:55:56;34.50;;;21.80;;
2998;SDS011;1509;51.964;7.628;2022-12-10T10:58:30;37.63;;;19.17;;
2998;SDS011;1509;51.964;7.628;2022-12-10T11:01:14;38.37;;;21.50;;
2998;SDS011;1509;51.964;7.628;2022-12-10T11:03:44;31.80;;;22.37;;
2998;SDS011;1509;51.964;7.628;2022-12-10T11:06:12;39.77;;;21.20;;
2998;SDS011;1509;51.964;7.628;2022-12-10T11:08:40;43.73;;;22.10;;
2998;SDS011;1509;51.964;7.628;2022-12-10T11:11:12;35.07;;;22.37;;
2998;SDS011;1509;51.964;7.628;2022-12-10T11:14:22;35.80;;;22.70;;
2998;SDS011;1509;51.964;7.628;2022-12-10T11:17:11;43.97;;;22.20;;
2998;SDS011;1509;51.964;7.628;2022-12-10T11:19:55;36.77;;;23.33;;
2998;SDS011;1509;51.964;7.628;2022-12-10T11:22:30;36.47;;;22.00;;
2998;SDS011;1509;51.964;7.628;2022-12-10T11:24:57;37.07;;;20.53;;
2998;SDS011;1509;51.964;7.628;2022-12-10T11:30:22;39.10;;;22.50;;
2998;SDS011;1509;51.964;7.628;2022-12-10T11:32:53;38.60;;;24.57;;
2998;SDS011;1509;51.964;7.628;2022-12-10T11:44:16;40.03;;;24.17;;
2998;SDS011;1509;51.964;7.628;2022-12-10T11:55:43;44.40;;;24.77;;
2998;SDS011;1509;51.964;7.628;2022-12-10T12:00:56;53.27;;;26.83;;
2998;SDS011;1509;51.964;7.628;2022-12-10T12:06:11;55.30;;;28.93;;
2998;SDS011;1509;51.964;7.628;2022-12-10T12:14:36;57.43;;;28.00;;
2998;SDS011;1509;51.964;7.628;2022-12-10T12:17:21;57.63;;;27.87;;
2998;SDS011;1509;51.964;7.628;2022-12-10T12:20:00;57.57;;;28.87;;
2998;SDS011;1509;51.964;7.628;2022-12-10T12:22:32;54.80;;;30.13;;
2998;SDS011;1509;51.964;7.628;2022-12-10T12:25:10;65.53;;;32.87;;
2998;SDS011;1509;51.964;7.628;2022-12-10T12:27:48;54.97;;;29.83;;
2998;SDS011;1509;51.964;7.628;2022-12-10T12:30:19;50.03;;;29.33;;
2998;SDS011;1509;51.964;7.628;2022-12-10T12:32:57;44.00;;;27.10;;
2998;SDS011;1509;51.964;7.628;2022-12-10T12:41:02;51.27;;;27.10;;
2998;SDS011;1509;51.964;7.628;2022-12-10T12:46:01;52.63;;;26.33;;
2998;SDS011;1509;51.964;7.628;2022-12-10T12:51:29;59.27;;;30.60;;
2998;SDS011;1509;51.964;7.628;2022-12-10T12:54:01;56.03;;;28.70;;
2998;SDS011;1509;51.964;7.628;2022-12-10T12:56:33;55.53;;;26.93;;
2998;SDS011;1509;51.964;7.628;2022-12-10T13:04:45;52.87;;;26.90;;
2998;SDS011;1509;51.964;7.628;2022-12-10T13:09:47;50.23;;;27.60;;
2998;SDS011;1509;51.964;7.628;2022-12-10T13:12:44;53.77;;;28.70;;
2998;SDS011;1509;51.964;7.628;2022-12-10T13:15:41;48.40;;;27.73;;
2998;SDS011;1509;51.964;7.628;2022-12-10T13:23:49;65.10;;;29.23;;
2998;SDS011;1509;51.964;7.628;2022-12-10T13:26:23;62.33;;;28.37;;
2998;SDS011;1509;51.964;7.628;2022-12-10T13:28:51;61.97;;;28.57;;
2998;SDS011;1509;51.964;7.628;2022-12-10T13:41:33;48.40;;;27.67;;
2998;SDS011;1509;51.964;7.628;2022-12-10T13:52:25;50.30;;;28.60;;
2998;SDS011;1509;51.964;7.628;2022-12-10T13:57:46;54.37;;;27.70;;
2998;SDS011;1509;51.964;7.628;2022-12-10T14:00:32;50.00;;;25.23;;
2998;SDS011;1509;51.964;7.628;2022-12-10T14:08:38;61.63;;;28.70;;
2998;SDS011;1509;51.964;7.628;2022-12-10T14:11:23;58.07;;;26.73;;
2998;SDS011;1509;51.964;7.628;2022-12-10T14:13:55;57.70;;;29.30;;
2998;SDS011;1509;51.964;7.628;2022-12-10T14:16:23;49.57;;;26.30;;
2998;SDS011;1509;51.964;7.628;2022-12-10T14:18:59;53.33;;;28.80;;
2998;SDS011;1509;51.964;7.628;2022-12-10T14:21:31;58.80;;;28.90;;
2998;SDS011;1509;51.964;7.628;2022-12-10T14:24:02;59.27;;;28.80;;
2998;SDS011;1509;51.964;7.628;2022-12-10T14:26:29;53.57;;;28.20;;
2998;SDS011;1509;51.964;7.628;2022-12-10T14:28:58;72.93;;;28.83;;
2998;SDS011;1509;51.964;7.628;2022-12-10T14:31:31;72.30;;;30.87;;
2998;SDS011;1509;51.964;7.628;2022-12-10T14:34:02;57.47;;;28.40;;
2998;SDS011;1509;51.964;7.628;2022-12-10T14:36:35;58.40;;;27.43;;
2998;SDS011;1509;51.964;7.628;2022-12-10T14:39:05;51.40;;;28.30;;
2998;SDS011;1509;51.964;7.628;2022-12-10T14:41:39;57.20;;;27.70;;
2998;SDS011;1509;51.964;7.628;2022-12-10T14:44:05;54.53;;;28.77;;
2998;SDS011;1509;51.964;7.628;2022-12-10T14:46:31;46.90;;;27.40;;
2998;SDS011;1509;51.964;7.628;2022-12-10T14:48:57;51.33;;;26.77;;
2998;SDS011;1509;51.964;7.628;2022-12-10T14:51:24;56.17;;;27.67;;
2998;SDS011;1509;51.964;7.628;2022-12-10T14:53:56;58.30;;;26.57;;
2998;SDS011;1509;51.964;7.628;2022-12-10T14:56:35;49.33;;;27.07;;
2998;SDS011;1509;51.964;7.628;2022-12-10T15:01:40;68.80;;;29.20;;
2998;SDS011;1509;51.964;7.628;2022-12-10T15:04:14;63.53;;;30.17;;
2998;SDS011;1509;51.964;7.628;2022-12-10T15:06:42;58.33;;;29.33;;
2998;SDS011;1509;51.964;7.628;2022-12-10T15:09:12;56.57;;;29.47;;
2998;SDS011;1509;51.964;7.628;2022-12-10T15:11:44;55.13;;;28.07;;
2998;SDS011;1509;51.964;7.628;2022-12-10T15:14:17;55.97;;;29.10;;
2998;SDS011;1509;51.964;7.628;2022-12-10T15:16:45;47.20;;;27.23;;
2998;SDS011;1509;51.964;7.628;2022-12-10T15:19:16;55.80;;;28.50;;
2998;SDS011;1509;51.964;7.628;2022-12-10T15:21:49;58.37;;;27.70;;
2998;SDS011;1509;51.964;7.628;2022-12-10T15:24:37;51.83;;;27.00;;
2998;SDS011;1509;51.964;7.628;2022-12-10T15:27:13;54.23;;;29.13;;
2998;SDS011;1509;51.964;7.628;2022-12-10T15:29:41;48.97;;;25.80;;
2998;SDS011;1509;51.964;7.628;2022-12-10T15:32:10;47.13;;;25.53;;
2998;SDS011;1509;51.964;7.628;2022-12-10T15:34:49;55.40;;;29.20;;
2998;SDS011;1509;51.964;7.628;2022-12-10T15:37:23;64.87;;;28.50;;
2998;SDS011;1509;51.964;7.628;2022-12-10T15:39:55;56.47;;;25.90;;
2998;SDS011;1509;51.964;7.628;2022-12-10T15:47:51;54.67;;;27.97;;
2998;SDS011;1509;51.964;7.628;2022-12-10T15:50:18;53.70;;;27.23;;
2998;SDS011;1509;51.964;7.628;2022-12-10T15:52:46;56.70;;;28.63;;
2998;SDS011;1509;51.964;7.628;2022-12-10T15:55:12;56.50;;;29.00;;
2998;SDS011;1509;51.964;7.628;2022-12-10T15:57:39;56.07;;;28.23;;
2998;SDS011;1509;51.964;7.628;2022-12-10T16:00:19;61.47;;;28.77;;
2998;SDS011;1509;51.964;7.628;2022-12-10T16:05:21;58.57;;;28.90;;
2998;SDS011;1509;51.964;7.628;2022-12-10T16:07:54;60.77;;;29.27;;
2998;SDS011;1509;51.964;7.628;2022-12-10T16:10:23;67.53;;;29.40;;
2998;SDS011;1509;51.964;7.628;2022-12-10T16:13:36;57.37;;;30.87;;
2998;SDS011;1509;51.964;7.628;2022-12-10T16:15:50;61.27;;;30.00;;
2998;SDS011;1509;51.964;7.628;2022-12-10T16:18:19;65.00;;;31.00;;
2998;SDS011;1509;51.964;7.628;2022-12-10T16:20:44;55.13;;;29.83;;
2998;SDS011;1509;51.964;7.628;2022-12-10T16:23:10;72.57;;;33.63;;
2998;SDS011;1509;51.964;7.628;2022-12-10T16:25:37;66.67;;;30.30;;
2998;SDS011;1509;51.964;7.628;2022-12-10T16:28:08;73.70;;;34.20;;
2998;SDS011;1509;51.964;7.628;2022-12-10T16:30:49;66.60;;;31.53;;
2998;SDS011;1509;51.964;7.628;2022-12-10T16:33:24;63.60;;;30.63;;
2998;SDS011;1509;51.964;7.628;2022-12-10T16:35:52;71.27;;;33.10;;
2998;SDS011;1509;51.964;7.628;2022-12-10T16:38:18;76.67;;;33.50;;
2998;SDS011;1509;51.964;7.628;2022-12-10T16:40:45;74.40;;;33.80;;
2998;SDS011;1509;51.964;7.628;2022-12-10T16:43:22;71.53;;;34.53;;
2998;SDS011;1509;51.964;7.628;2022-12-10T16:45:50;65.93;;;32.87;;
2998;SDS011;1509;51.964;7.628;2022-12-10T16:48:16;61.77;;;32.07;;
2998;SDS011;1509;51.964;7.628;2022-12-10T16:50:43;67.60;;;34.33;;
2998;SDS011;1509;51.964;7.628;2022-12-10T16:53:18;63.67;;;30.43;;
2998;SDS011;1509;51.964;7.628;2022-12-10T16:55:47;68.20;;;31.10;;
2998;SDS011;1509;51.964;7.628;2022-12-10T16:58:12;78.03;;;34.50;;
2998;SDS011;1509;51.964;7.628;2022-12-10T17:00:39;74.30;;;35.07;;
2998;SDS011;1509;51.964;7.628;2022-12-10T17:03:08;69.83;;;32.40;;
2998;SDS011;1509;51.964;7.628;2022-12-10T17:05:46;64.87;;;33.17;;
2998;SDS011;1509;51.964;7.628;2022-12-10T17:08:13;75.60;;;33.90;;
2998;SDS011;1509;51.964;7.628;2022-12-10T17:10:39;67.40;;;33.20;;
2998;SDS011;1509;51.964;7.628;2022-12-10T17:13:23;73.33;;;33.30;;
2998;SDS011;1509;51.964;7.628;2022-12-10T17:15:51;82.37;;;33.90;;
2998;SDS011;1509;51.964;7.628;2022-12-10T17:18:17;72.10;;;32.57;;